Time;durP1;ratioP1;P1;durP2;ratioP2;P2;SDS_P1;SDS_P2;PMS_P1;PMS_P2;Temp;Humidity;BMP_temperature;BMP_pressure;BME280_temperature;BME280_humidity;BME280_pressure;Samples;Min_cycle;Max_cycle;Signal;HPM_P1;HPM_P2
2023/12/24 00:01:27;;;;;;;39.58;21.20;;;14.60;90.00;;;;;;4591533;19;20305;-85
2023/12/24 00:03:21;;;;;;;48.17;26.25;;;14.60;89.90;;;;;;4592831;19;20023;-85
2023/12/24 00:05:10;;;;;;;39.53;21.27;;;14.60;89.90;;;;;;4592907;19;20007;-85
2023/12/24 00:06:53;;;;;;;56.17;28.25;;;14.60;89.90;;;;;;4592448;19;20017;-85
2023/12/24 00:08:46;;;;;;;50.20;26.43;;;14.60;89.90;;;;;;4592950;19;20303;-85
2023/12/24 00:10:34;;;;;;;44.95;25.45;;;14.60;89.80;;;;;;4592967;19;20090;-85
2023/12/24 00:12:23;;;;;;;31.45;17.60;;;14.60;89.70;;;;;;4592500;19;20006;-85
2023/12/24 00:14:14;;;;;;;18.25;10.40;;;14.60;89.60;;;;;;4591661;19;19998;-85
2023/12/24 00:15:55;;;;;;;37.58;19.13;;;14.60;89.60;;;;;;4593317;19;20017;-85
2023/12/24 00:17:40;;;;;;;20.13;11.73;;;14.60;89.70;;;;;;4592538;19;20006;-85
2023/12/24 00:19:32;;;;;;;29.33;15.18;;;14.60;89.70;;;;;;4592092;19;20089;-85
2023/12/24 00:21:22;;;;;;;39.22;21.60;;;14.60;89.60;;;;;;4592724;19;20023;-85
2023/12/24 00:23:16;;;;;;;29.20;16.80;;;14.60;89.70;;;;;;4592217;19;20077;-85
2023/12/24 00:25:06;;;;;;;20.20;11.52;;;14.60;89.80;;;;;;4592321;19;20077;-85
2023/12/24 00:26:52;;;;;;;22.48;12.95;;;14.60;89.80;;;;;;4592339;19;20013;-86
2023/12/24 00:28:51;;;;;;;32.92;20.20;;;14.50;89.70;;;;;;4592107;19;20010;-85
2023/12/24 00:30:45;;;;;;;12.25;7.10;;;14.50;89.80;;;;;;4590761;19;20019;-85
2023/12/24 00:32:34;;;;;;;20.42;11.15;;;14.50;89.60;;;;;;4592154;19;20006;-85
2023/12/24 00:34:21;;;;;;;33.03;22.55;;;14.50;89.70;;;;;;4592129;19;20006;-85
2023/12/24 00:36:08;;;;;;;12.82;8.48;;;14.50;89.70;;;;;;4592832;19;20010;-86
2023/12/24 00:38:04;;;;;;;18.42;12.27;;;14.50;89.70;;;;;;4592091;19;20013;-86
2023/12/24 00:39:44;;;;;;;25.83;16.27;;;14.50;89.40;;;;;;4591617;19;20081;-85
2023/12/24 00:41:26;;;;;;;26.40;18.17;;;14.50;89.50;;;;;;4591826;19;20010;-85
2023/12/24 00:43:17;;;;;;;23.88;13.95;;;14.50;89.50;;;;;;4591948;19;20007;-85
2023/12/24 00:45:00;;;;;;;21.90;13.38;;;14.50;89.70;;;;;;4592193;19;20066;-85
2023/12/24 00:46:47;;;;;;;23.13;14.60;;;14.50;90.00;;;;;;4593145;19;20007;-85
2023/12/24 00:48:41;;;;;;;27.23;17.33;;;14.50;90.10;;;;;;4591844;19;20018;-85
2023/12/24 00:50:25;;;;;;;25.52;15.85;;;14.50;90.10;;;;;;4590554;19;20018;-85
2023/12/24 00:52:06;;;;;;;30.60;18.88;;;14.50;90.00;;;;;;4592051;19;20006;-86
2023/12/24 00:54:01;;;;;;;31.75;19.33;;;14.50;89.80;;;;;;4591772;19;20003;-85
2023/12/24 00:55:44;;;;;;;23.48;15.63;;;14.50;89.70;;;;;;4591409;19;20017;-85
2023/12/24 00:57:31;;;;;;;21.23;14.35;;;14.60;89.60;;;;;;4591529;19;20442;-85
2023/12/24 00:59:27;;;;;;;14.52;9.15;;;14.60;89.50;;;;;;4591634;19;20066;-85
2023/12/24 01:21:10;;;;;;;20.58;12.07;;;14.60;88.80;;;;;;4574505;19;20006;-87
2023/12/24 01:22:45;;;;;;;9.93;5.88;;;14.60;88.90;;;;;;4592485;19;20465;-87
2023/12/24 01:24:20;;;;;;;17.10;10.40;;;14.60;88.70;;;;;;4590500;19;20019;-87
2023/12/24 01:25:54;;;;;;;22.33;13.27;;;14.60;88.70;;;;;;4591152;19;20383;-87
2023/12/24 01:27:30;;;;;;;24.85;14.88;;;14.60;88.50;;;;;;4592304;19;20066;-87
2023/12/24 01:29:04;;;;;;;26.25;14.93;;;14.60;88.50;;;;;;4592743;19;20062;-87
2023/12/24 01:30:38;;;;;;;14.48;8.55;;;14.60;88.40;;;;;;4590647;19;20023;-87
2023/12/24 01:32:14;;;;;;;24.33;12.10;;;14.60;88.40;;;;;;4592100;19;20004;-85
2023/12/24 01:33:48;;;;;;;16.13;8.63;;;14.60;88.30;;;;;;4592325;19;20062;-85
2023/12/24 01:35:22;;;;;;;25.23;14.20;;;14.60;88.40;;;;;;4591020;19;20006;-85
2023/12/24 01:36:58;;;;;;;20.15;11.02;;;14.60;88.30;;;;;;4592256;19;20006;-87
2023/12/24 01:38:32;;;;;;;16.33;10.55;;;14.60;88.10;;;;;;4592600;19;20485;-87
2023/12/24 01:40:06;;;;;;;18.17;11.43;;;14.60;88.00;;;;;;4590351;19;20371;-85
2023/12/24 01:41:45;;;;;;;21.05;13.90;;;14.60;88.00;;;;;;4589802;19;20027;-85
2023/12/24 01:43:19;;;;;;;19.13;13.65;;;14.60;88.00;;;;;;4592093;19;20435;-85
2023/12/24 01:44:53;;;;;;;16.02;9.88;;;14.50;87.80;;;;;;4590818;19;19995;-87
2023/12/24 01:46:29;;;;;;;12.10;7.32;;;14.60;87.80;;;;;;4592044;19;20010;-85
2023/12/24 01:48:04;;;;;;;19.65;11.82;;;14.50;87.80;;;;;;4592341;19;20003;-85
2023/12/24 01:49:38;;;;;;;23.27;14.60;;;14.50;87.80;;;;;;4592052;19;20002;-84
2023/12/24 01:51:13;;;;;;;20.52;11.25;;;14.50;87.60;;;;;;4590219;19;20041;-85
2023/12/24 01:52:48;;;;;;;18.20;12.32;;;14.50;87.60;;;;;;4590942;19;20009;-85
2023/12/24 01:54:23;;;;;;;18.30;10.45;;;14.50;87.60;;;;;;4590846;19;20003;-86
2023/12/24 01:56:00;;;;;;;21.55;13.25;;;14.60;87.70;;;;;;4591946;19;20006;-87
2023/12/24 01:57:35;;;;;;;24.30;12.43;;;14.50;87.80;;;;;;4590717;19;20313;-87
2023/12/24 01:59:10;;;;;;;21.30;13.00;;;14.50;88.00;;;;;;4591607;19;20002;-86
2023/12/24 02:00:51;;;;;;;26.02;14.30;;;14.50;88.40;;;;;;4589720;19;20017;-85
2023/12/24 02:02:26;;;;;;;37.63;20.75;;;14.50;88.60;;;;;;4590604;19;20014;-87
2023/12/24 02:04:00;;;;;;;33.75;17.17;;;14.40;88.60;;;;;;4590478;19;20006;-87
2023/12/24 02:05:35;;;;;;;19.25;9.57;;;14.40;88.60;;;;;;4590480;19;20210;-87
2023/12/24 02:07:10;;;;;;;22.60;11.83;;;14.40;88.40;;;;;;4590431;19;20333;-87
2023/12/24 02:08:44;;;;;;;29.58;17.42;;;14.50;88.40;;;;;;4590444;19;20002;-85
2023/12/24 02:10:20;;;;;;;22.08;12.32;;;14.50;88.20;;;;;;4591335;19;19999;-87
2023/12/24 02:11:54;;;;;;;29.95;17.55;;;14.50;88.30;;;;;;4590703;19;19999;-87
2023/12/24 02:13:28;;;;;;;30.58;15.27;;;14.50;88.20;;;;;;4591312;19;19998;-87
2023/12/24 02:15:05;;;;;;;16.90;9.87;;;14.50;88.10;;;;;;4591709;19;20320;-86
2023/12/24 02:16:40;;;;;;;33.25;18.38;;;14.50;88.60;;;;;;4590474;19;20013;-87
2023/12/24 02:18:14;;;;;;;17.48;11.10;;;14.50;88.00;;;;;;4590267;19;20354;-87
2023/12/24 02:19:49;;;;;;;15.67;11.03;;;14.50;88.00;;;;;;4589903;19;20007;-87
2023/12/24 02:21:23;;;;;;;10.95;7.78;;;14.50;87.80;;;;;;4590134;19;20022;-85
2023/12/24 02:22:56;;;;;;;11.77;8.90;;;14.50;87.70;;;;;;4590069;19;20007;-86
2023/12/24 02:24:33;;;;;;;13.05;8.18;;;14.50;87.60;;;;;;4591185;19;20021;-85
2023/12/24 02:26:16;;;;;;;14.13;7.75;;;14.50;87.80;;;;;;4590430;19;19999;-85
2023/12/24 02:28:01;;;;;;;14.35;9.60;;;14.50;87.70;;;;;;4590124;19;20100;-84
2023/12/24 02:29:44;;;;;;;10.93;6.65;;;14.50;87.60;;;;;;4590188;19;20010;-85
2023/12/24 02:31:19;;;;;;;10.95;5.78;;;14.50;87.40;;;;;;4589128;19;20010;-86
2023/12/24 02:32:57;;;;;;;12.68;7.57;;;14.50;87.50;;;;;;4590086;19;20065;-86
2023/12/24 02:34:32;;;;;;;10.40;6.60;;;14.50;87.40;;;;;;4590050;19;20006;-87
2023/12/24 02:36:06;;;;;;;10.00;5.72;;;14.50;87.40;;;;;;4591259;19;20450;-87
2023/12/24 02:37:40;;;;;;;10.93;5.72;;;14.50;87.40;;;;;;4594698;19;20005;-85
2023/12/24 02:39:15;;;;;;;8.68;4.53;;;14.50;87.30;;;;;;4594835;19;20365;-85
2023/12/24 02:40:50;;;;;;;8.90;5.35;;;14.50;87.20;;;;;;4594063;19;20275;-86
2023/12/24 02:42:23;;;;;;;7.78;4.30;;;14.50;87.20;;;;;;4594323;19;20367;-84
2023/12/24 02:44:00;;;;;;;9.50;5.07;;;14.50;87.20;;;;;;4594677;19;20006;-86
2023/12/24 02:45:34;;;;;;;11.27;5.53;;;14.50;87.10;;;;;;4594416;19;20305;-85
2023/12/24 02:47:09;;;;;;;8.25;4.07;;;14.50;87.10;;;;;;4594360;19;20003;-85
2023/12/24 02:48:44;;;;;;;8.43;4.57;;;14.50;87.10;;;;;;4594369;19;20002;-87
2023/12/24 02:50:19;;;;;;;7.55;4.80;;;14.50;87.10;;;;;;4594373;19;20344;-88
2023/12/24 02:51:56;;;;;;;15.30;8.73;;;14.50;87.00;;;;;;4595010;19;20016;-87
2023/12/24 02:53:31;;;;;;;13.13;7.60;;;14.50;87.00;;;;;;4595355;19;20010;-88
2023/12/24 02:55:06;;;;;;;11.88;7.10;;;14.50;86.90;;;;;;4595653;19;19994;-86
2023/12/24 02:56:40;;;;;;;16.58;9.23;;;14.40;86.70;;;;;;4595769;19;20283;-88
2023/12/24 02:58:17;;;;;;;15.68;8.90;;;14.50;86.90;;;;;;4595725;19;20442;-89
2023/12/24 02:59:53;;;;;;;17.08;10.43;;;14.50;86.70;;;;;;4594846;19;20006;-88
2023/12/24 03:01:27;;;;;;;15.00;8.25;;;14.50;86.70;;;;;;4592709;19;20002;-88
2023/12/24 03:03:03;;;;;;;17.93;9.73;;;14.50;86.60;;;;;;4595185;19;20429;-86
2023/12/24 03:04:38;;;;;;;17.00;8.45;;;14.50;86.60;;;;;;4595367;19;20006;-87
2023/12/24 03:06:12;;;;;;;11.88;6.20;;;14.50;86.30;;;;;;4595299;19;20337;-88
2023/12/24 03:07:47;;;;;;;10.57;6.32;;;14.40;86.60;;;;;;4595456;19;19995;-88
2023/12/24 03:09:22;;;;;;;11.30;6.68;;;14.40;86.70;;;;;;4595249;19;20020;-88
2023/12/24 03:10:57;;;;;;;15.70;9.52;;;14.40;87.20;;;;;;4593121;19;20003;-86
2023/12/24 03:12:32;;;;;;;14.05;8.95;;;14.40;87.30;;;;;;4594951;19;20005;-88
2023/12/24 03:14:40;;;;;;;11.23;6.53;;;14.40;87.50;;;;;;4593976;19;20005;-87
2023/12/24 03:16:15;;;;;;;12.73;7.13;;;14.40;87.50;;;;;;4595299;19;20035;-88
2023/12/24 03:17:50;;;;;;;12.23;8.32;;;14.40;87.30;;;;;;4593926;19;20026;-88
2023/12/24 03:19:25;;;;;;;13.38;6.13;;;14.40;87.30;;;;;;4593761;19;20093;-87
2023/12/24 03:21:00;;;;;;;10.57;5.85;;;14.40;87.40;;;;;;4591726;19;20019;-88
2023/12/24 03:22:36;;;;;;;10.05;5.20;;;14.40;87.40;;;;;;4594782;19;20034;-88
2023/12/24 03:24:10;;;;;;;10.02;3.97;;;14.40;87.50;;;;;;4593697;19;19999;-88
2023/12/24 03:25:43;;;;;;;8.13;3.60;;;14.40;87.50;;;;;;4593911;19;20029;-88
2023/12/24 03:27:19;;;;;;;6.40;3.58;;;14.40;87.60;;;;;;4594612;19;20126;-88
2023/12/24 03:28:52;;;;;;;7.00;3.90;;;14.40;87.60;;;;;;4593886;19;20365;-88
2023/12/24 03:30:26;;;;;;;6.57;4.00;;;14.40;87.70;;;;;;4593447;19;20002;-88
2023/12/24 03:32:02;;;;;;;9.63;4.33;;;14.40;87.60;;;;;;4594847;19;19999;-86
2023/12/24 03:33:36;;;;;;;6.88;3.80;;;14.40;87.80;;;;;;4594676;19;20330;-86
2023/12/24 03:35:10;;;;;;;6.73;4.83;;;14.40;87.70;;;;;;4593477;19;20083;-86
2023/12/24 03:36:46;;;;;;;9.75;5.10;;;14.40;87.80;;;;;;4593696;19;20006;-86
2023/12/24 03:38:21;;;;;;;9.80;5.15;;;14.40;87.90;;;;;;4594605;19;20002;-88
2023/12/24 03:39:56;;;;;;;7.87;4.17;;;14.50;88.20;;;;;;4592958;19;20106;-88
2023/12/24 03:41:31;;;;;;;10.30;5.83;;;14.40;88.10;;;;;;4591999;19;20308;-86
2023/12/24 03:43:06;;;;;;;10.38;4.95;;;14.40;88.10;;;;;;4593394;19;19995;-86
2023/12/24 03:44:40;;;;;;;11.37;5.87;;;14.50;88.30;;;;;;4594235;19;20429;-88
2023/12/24 03:46:25;;;;;;;12.13;7.40;;;14.40;88.40;;;;;;4594713;19;20354;-86
2023/12/24 03:48:02;;;;;;;8.87;5.03;;;14.50;88.50;;;;;;4592994;19;20370;-86
2023/12/24 03:49:37;;;;;;;8.70;5.20;;;14.40;88.40;;;;;;4593202;19;20006;-86
2023/12/24 03:51:12;;;;;;;9.23;5.00;;;14.40;88.60;;;;;;4593144;19;20070;-86
2023/12/24 03:52:46;;;;;;;7.57;4.15;;;14.40;88.60;;;;;;4594605;19;20305;-86
2023/12/24 03:54:21;;;;;;;9.88;5.43;;;14.40;88.50;;;;;;4593068;19;20324;-86
2023/12/24 03:55:56;;;;;;;10.13;5.53;;;14.40;88.70;;;;;;4594095;19;20028;-86
2023/12/24 03:57:30;;;;;;;8.18;4.70;;;14.40;88.50;;;;;;4594521;19;20321;-88
2023/12/24 03:59:04;;;;;;;7.43;4.00;;;14.40;88.50;;;;;;4593264;19;20493;-88
2023/12/24 04:00:40;;;;;;;6.20;3.33;;;14.40;88.60;;;;;;4592054;19;20007;-87
2023/12/24 04:02:15;;;;;;;6.00;3.45;;;14.40;88.50;;;;;;4592855;19;20015;-88
2023/12/24 04:03:48;;;;;;;8.60;3.57;;;14.40;88.70;;;;;;4593921;19;20013;-85
2023/12/24 04:05:24;;;;;;;9.80;4.05;;;14.40;88.70;;;;;;4594430;19;19998;-85
2023/12/24 04:07:00;;;;;;;7.80;4.10;;;14.40;88.70;;;;;;4592753;19;20031;-86
2023/12/24 04:08:34;;;;;;;10.38;4.55;;;14.50;88.80;;;;;;4594002;19;20009;-86
2023/12/24 04:10:10;;;;;;;8.25;4.60;;;14.40;88.90;;;;;;4592653;19;19999;-86
2023/12/24 04:11:43;;;;;;;10.40;5.83;;;14.50;89.00;;;;;;4591330;19;20002;-86
2023/12/24 04:13:17;;;;;;;11.48;6.47;;;14.40;89.10;;;;;;4592894;19;20006;-86
2023/12/24 04:14:53;;;;;;;13.35;8.68;;;14.50;89.10;;;;;;4592946;19;20006;-86
2023/12/24 04:16:26;;;;;;;27.52;17.58;;;14.40;89.20;;;;;;4593523;19;19999;-85
2023/12/24 04:18:01;;;;;;;21.52;13.85;;;14.40;89.10;;;;;;4594142;19;19999;-85
2023/12/24 04:19:36;;;;;;;19.23;11.18;;;14.40;89.50;;;;;;4592574;19;20305;-86
2023/12/24 04:21:11;;;;;;;14.70;8.00;;;14.40;89.80;;;;;;4592210;19;20033;-85
2023/12/24 04:22:46;;;;;;;11.02;5.03;;;14.40;89.90;;;;;;4594079;19;20002;-86
2023/12/24 04:24:22;;;;;;;8.63;5.30;;;14.40;90.00;;;;;;4592781;19;20007;-86
2023/12/24 04:25:57;;;;;;;7.70;5.10;;;14.40;90.10;;;;;;4593632;19;20025;-86
2023/12/24 04:27:32;;;;;;;10.80;5.60;;;14.40;90.10;;;;;;4593693;19;20096;-86
2023/12/24 04:29:08;;;;;;;8.27;5.80;;;14.40;90.10;;;;;;4592366;19;20074;-87
2023/12/24 04:30:41;;;;;;;9.00;5.03;;;14.40;90.10;;;;;;4592018;19;20007;-87
2023/12/24 04:32:16;;;;;;;12.88;7.88;;;14.50;90.00;;;;;;4592307;19;20649;-86
2023/12/24 04:33:52;;;;;;;10.07;6.33;;;14.40;90.00;;;;;;4592306;19;20084;-86
2023/12/24 04:35:26;;;;;;;8.63;4.67;;;14.40;90.00;;;;;;4593135;19;19998;-86
2023/12/24 04:37:01;;;;;;;6.90;4.17;;;14.50;90.00;;;;;;4592119;19;20002;-86
2023/12/24 04:38:36;;;;;;;7.05;4.20;;;14.50;90.30;;;;;;4592210;19;20066;-86
2023/12/24 04:40:11;;;;;;;6.05;3.40;;;14.50;90.10;;;;;;4592581;19;20002;-86
2023/12/24 04:41:44;;;;;;;7.20;3.97;;;14.50;90.10;;;;;;4592050;19;20388;-86
2023/12/24 04:43:19;;;;;;;8.98;4.85;;;14.40;90.10;;;;;;4592888;19;20012;-86
2023/12/24 04:44:53;;;;;;;11.27;4.37;;;14.50;90.10;;;;;;4593348;19;19995;-87
2023/12/24 04:46:27;;;;;;;9.73;4.65;;;14.50;90.10;;;;;;4593548;19;20443;-86
2023/12/24 04:48:03;;;;;;;8.77;4.03;;;14.40;90.10;;;;;;4593333;19;20006;-86
2023/12/24 04:49:38;;;;;;;5.97;3.70;;;14.50;90.20;;;;;;4592191;19;19998;-87
2023/12/24 04:51:13;;;;;;;10.23;4.13;;;14.50;90.20;;;;;;4592101;19;20084;-87
2023/12/24 04:52:49;;;;;;;7.40;5.17;;;14.50;90.10;;;;;;4593236;19;20085;-87
2023/12/24 04:54:23;;;;;;;9.97;5.17;;;14.50;90.10;;;;;;4591756;19;20429;-87
2023/12/24 04:55:57;;;;;;;7.43;3.80;;;14.50;90.20;;;;;;4592015;19;20015;-87
2023/12/24 04:57:32;;;;;;;10.30;5.25;;;14.50;90.20;;;;;;4591795;19;20003;-86
2023/12/24 04:59:06;;;;;;;7.15;3.95;;;14.50;90.20;;;;;;4590614;19;20008;-87
2023/12/24 05:00:40;;;;;;;7.53;4.33;;;14.40;90.20;;;;;;4591849;19;20302;-87
2023/12/24 05:02:15;;;;;;;7.50;4.13;;;14.40;90.20;;;;;;4592153;19;20003;-86
2023/12/24 05:03:49;;;;;;;8.70;4.00;;;14.40;90.10;;;;;;4592829;19;20313;-86
2023/12/24 05:05:24;;;;;;;9.23;5.63;;;14.40;90.20;;;;;;4591600;19;20009;-86
2023/12/24 05:07:00;;;;;;;9.65;5.53;;;14.50;90.20;;;;;;4592597;19;20023;-86
2023/12/24 05:08:33;;;;;;;11.73;7.20;;;14.50;90.20;;;;;;4593147;19;20357;-86
2023/12/24 05:10:08;;;;;;;14.27;7.78;;;14.50;90.20;;;;;;4593077;19;20329;-86
2023/12/24 05:11:43;;;;;;;11.25;6.30;;;14.40;90.10;;;;;;4591993;19;20038;-86
2023/12/24 05:13:17;;;;;;;10.90;5.78;;;14.50;90.10;;;;;;4591441;19;20029;-86
2023/12/24 05:14:51;;;;;;;10.60;6.07;;;14.50;90.10;;;;;;4592415;19;20006;-87
2023/12/24 05:16:26;;;;;;;9.20;5.53;;;14.50;90.20;;;;;;4592743;19;20281;-86
2023/12/24 05:18:02;;;;;;;10.20;5.53;;;14.40;90.20;;;;;;4592983;19;19999;-86
2023/12/24 05:19:36;;;;;;;11.80;6.97;;;14.50;90.20;;;;;;4591627;19;20002;-85
2023/12/24 05:21:11;;;;;;;10.75;7.15;;;14.50;90.20;;;;;;4591214;19;20436;-86
2023/12/24 05:22:45;;;;;;;10.68;7.15;;;14.50;90.20;;;;;;4591160;19;20002;-86
2023/12/24 05:24:20;;;;;;;11.37;5.50;;;14.50;90.20;;;;;;4591451;19;19998;-85
2023/12/24 05:25:56;;;;;;;8.20;5.60;;;14.50;90.20;;;;;;4591494;19;20007;-85
2023/12/24 05:27:30;;;;;;;9.83;5.63;;;14.40;90.00;;;;;;4591216;19;20009;-85
2023/12/24 05:29:04;;;;;;;8.93;5.17;;;14.50;90.10;;;;;;4592351;19;20286;-85
2023/12/24 05:30:39;;;;;;;9.15;5.05;;;14.40;90.20;;;;;;4592780;19;20018;-86
2023/12/24 05:32:13;;;;;;;7.68;4.53;;;14.40;90.30;;;;;;4592384;19;20006;-85
2023/12/24 05:33:48;;;;;;;10.13;5.13;;;14.40;90.40;;;;;;4592368;19;20034;-85
2023/12/24 05:35:24;;;;;;;7.87;4.27;;;14.50;90.40;;;;;;4592404;19;20027;-85
2023/12/24 05:37:00;;;;;;;9.32;4.78;;;14.40;90.40;;;;;;4590985;19;20024;-85
2023/12/24 05:38:36;;;;;;;8.23;4.63;;;14.50;90.40;;;;;;4591020;19;20001;-85
2023/12/24 05:40:12;;;;;;;9.35;4.93;;;14.50;90.40;;;;;;4592050;19;20078;-85
2023/12/24 05:41:48;;;;;;;10.00;5.47;;;14.50;90.40;;;;;;4592193;19;20476;-85
2023/12/24 05:43:23;;;;;;;9.52;5.45;;;14.50;90.40;;;;;;4592232;19;20003;-78
2023/12/24 05:44:59;;;;;;;8.35;5.07;;;14.50;90.50;;;;;;4592281;19;20007;-85
2023/12/24 05:46:35;;;;;;;9.02;5.55;;;14.40;90.40;;;;;;4592458;19;20012;-84
2023/12/24 05:48:09;;;;;;;11.13;5.33;;;14.40;90.50;;;;;;4590714;19;20002;-84
2023/12/24 05:49:44;;;;;;;13.63;6.20;;;14.40;90.50;;;;;;4591736;19;20003;-86
2023/12/24 05:51:18;;;;;;;12.70;6.45;;;14.40;90.50;;;;;;4590051;19;20315;-84
2023/12/24 05:52:52;;;;;;;10.82;6.57;;;14.40;90.50;;;;;;4591705;19;20010;-85
2023/12/24 05:54:29;;;;;;;9.60;5.67;;;14.40;90.50;;;;;;4592294;19;20002;-80
2023/12/24 05:56:02;;;;;;;11.75;5.72;;;14.40;90.60;;;;;;4590739;19;20009;-83
2023/12/24 05:57:40;;;;;;;12.80;6.53;;;14.50;90.60;;;;;;4591675;19;20026;-88
2023/12/24 05:59:15;;;;;;;10.27;5.25;;;14.40;90.60;;;;;;4590665;19;20010;-85
2023/12/24 06:00:49;;;;;;;9.90;5.93;;;14.50;93.10;;;;;;4590513;19;20007;-86
2023/12/24 06:02:23;;;;;;;8.23;5.30;;;13.80;94.80;;;;;;4591897;19;20025;-86
2023/12/24 06:04:01;;;;;;;9.03;5.13;;;13.20;95.00;;;;;;4590843;19;20006;-86
2023/12/24 06:05:36;;;;;;;7.23;4.37;;;12.60;95.50;;;;;;4590776;19;20029;-86
2023/12/24 06:07:10;;;;;;;7.90;4.13;;;12.20;96.00;;;;;;4591536;19;20070;-80
2023/12/24 06:08:46;;;;;;;6.60;4.50;;;11.80;97.20;;;;;;4592372;19;20021;-83
2023/12/24 06:10:20;;;;;;;7.17;4.60;;;11.50;96.90;;;;;;4591739;19;20003;-85
2023/12/24 06:11:55;;;;;;;6.97;4.30;;;11.30;97.80;;;;;;4594009;19;20396;-88
2023/12/24 06:13:30;;;;;;;8.50;5.67;;;11.10;97.20;;;;;;4595426;19;20512;-86
2023/12/24 06:15:04;;;;;;;13.97;9.37;;;10.90;98.30;;;;;;4596127;19;20421;-82
2023/12/24 06:16:39;;;;;;;19.40;14.67;;;10.80;98.30;;;;;;4596634;19;20495;-85
2023/12/24 06:18:15;;;;;;;21.27;17.00;;;10.60;98.50;;;;;;4596374;19;20452;-79
2023/12/24 06:19:49;;;;;;;28.40;19.77;;;10.50;99.00;;;;;;4594903;19;20961;-83
2023/12/24 06:21:23;;;;;;;26.27;16.07;;;10.50;99.20;;;;;;4594491;19;21044;-85
2023/12/24 06:22:59;;;;;;;17.43;11.90;;;10.40;99.40;;;;;;4596250;19;20429;-84
2023/12/24 06:24:33;;;;;;;19.23;11.30;;;10.30;99.30;;;;;;4596418;19;20445;-86
2023/12/24 06:26:08;;;;;;;13.73;9.20;;;10.20;99.60;;;;;;4596681;19;20441;-88
2023/12/24 06:27:43;;;;;;;18.97;12.20;;;10.20;99.80;;;;;;4596222;19;20414;-84
2023/12/24 06:29:20;;;;;;;31.80;20.13;;;10.20;99.90;;;;;;4596173;19;20361;-79
2023/12/24 06:30:55;;;;;;;28.17;18.60;;;10.10;99.90;;;;;;4593803;19;20468;-82
2023/12/24 06:32:31;;;;;;;41.10;23.53;;;10.10;99.90;;;;;;4596001;19;20411;-85
2023/12/24 06:34:07;;;;;;;39.87;22.57;;;10.00;99.90;;;;;;4596230;19;20393;-84
2023/12/24 06:35:42;;;;;;;39.03;24.87;;;10.00;99.90;;;;;;4596027;19;20405;-81
2023/12/24 06:37:17;;;;;;;26.67;19.77;;;9.90;99.90;;;;;;4596048;19;20365;-79
2023/12/24 06:38:51;;;;;;;26.13;16.40;;;9.90;99.90;;;;;;4594585;19;20392;-86
2023/12/24 06:40:25;;;;;;;24.13;16.80;;;9.80;99.90;;;;;;4594585;19;20416;-84
2023/12/24 06:42:00;;;;;;;24.07;16.67;;;9.80;99.90;;;;;;4594556;19;20416;-87
2023/12/24 06:43:34;;;;;;;36.83;23.37;;;9.80;99.90;;;;;;4594555;19;20421;-84
2023/12/24 06:45:08;;;;;;;40.23;27.03;;;9.80;99.90;;;;;;4594339;19;20612;-87
2023/12/24 06:46:43;;;;;;;33.77;22.83;;;9.80;99.90;;;;;;4595822;19;20913;-89
2023/12/24 06:48:18;;;;;;;35.07;22.50;;;9.70;99.90;;;;;;4595875;19;20744;-88
2023/12/24 06:49:52;;;;;;;38.23;24.00;;;9.70;99.90;;;;;;4594516;19;20392;-87
2023/12/24 06:51:27;;;;;;;33.53;21.63;;;9.70;99.90;;;;;;4593016;19;20493;-86
2023/12/24 06:53:02;;;;;;;27.17;18.03;;;9.70;99.90;;;;;;4594599;19;20417;-82
2023/12/24 06:54:35;;;;;;;24.30;16.27;;;9.60;99.90;;;;;;4595440;19;20843;-78
2023/12/24 06:56:12;;;;;;;29.63;19.03;;;9.60;99.90;;;;;;4596602;19;20417;-91
2023/12/24 06:58:02;;;;;;;26.73;17.73;;;9.60;99.90;;;;;;4595224;19;20873;-90
2023/12/24 06:59:36;;;;;;;30.80;21.20;;;9.60;99.90;;;;;;4594419;19;20859;-88
2023/12/24 07:01:13;;;;;;;25.27;17.73;;;9.60;99.90;;;;;;4592740;19;20517;-87
2023/12/24 07:02:47;;;;;;;25.83;18.87;;;9.50;99.90;;;;;;4594234;19;20413;-88
2023/12/24 07:04:21;;;;;;;24.60;16.30;;;9.50;99.90;;;;;;4594334;19;20389;-88
2023/12/24 07:06:00;;;;;;;21.33;15.13;;;9.50;99.90;;;;;;4594746;19;20504;-88
2023/12/24 07:07:35;;;;;;;18.70;13.47;;;9.50;99.90;;;;;;4594410;19;20435;-88
2023/12/24 07:09:13;;;;;;;16.10;12.60;;;9.50;99.90;;;;;;4594134;19;20445;-90
2023/12/24 07:10:48;;;;;;;27.80;18.90;;;9.50;99.90;;;;;;4593167;19;20457;-89
2023/12/24 07:12:36;;;;;;;24.07;18.10;;;9.50;99.90;;;;;;4594314;19;20443;-91
2023/12/24 07:14:12;;;;;;;33.77;22.47;;;9.50;99.90;;;;;;4593889;19;20424;-88
2023/12/24 07:15:49;;;;;;;39.50;24.57;;;9.50;99.90;;;;;;4594714;19;20898;-88
2023/12/24 07:17:24;;;;;;;25.57;19.37;;;9.50;99.90;;;;;;4593728;19;20519;-88
2023/12/24 07:19:05;;;;;;;34.47;21.87;;;9.50;99.90;;;;;;4593964;19;20455;-86
2023/12/24 07:20:40;;;;;;;24.27;16.47;;;9.50;99.90;;;;;;4592605;19;20528;-88
2023/12/24 07:22:16;;;;;;;35.43;20.53;;;9.50;99.90;;;;;;4593417;19;20447;-85
2023/12/24 07:23:50;;;;;;;26.83;19.07;;;9.50;99.90;;;;;;4595184;19;20744;-90
2023/12/24 07:25:25;;;;;;;20.40;15.87;;;9.50;99.90;;;;;;4593777;19;20385;-90
2023/12/24 07:27:00;;;;;;;18.33;14.33;;;9.40;99.90;;;;;;4593535;19;20385;-90
2023/12/24 07:28:35;;;;;;;17.43;14.03;;;9.40;99.90;;;;;;4593438;19;20539;-83
2023/12/24 07:30:11;;;;;;;16.63;12.80;;;9.40;99.90;;;;;;4593771;19;20656;-86
2023/12/24 07:31:46;;;;;;;19.83;13.03;;;9.40;99.90;;;;;;4593509;19;20499;-85
2023/12/24 07:33:20;;;;;;;22.67;14.93;;;9.70;99.90;;;;;;4594420;19;20559;-87
2023/12/24 07:34:58;;;;;;;22.87;14.67;;;10.00;99.90;;;;;;4593450;19;20381;-87
2023/12/24 07:36:33;;;;;;;22.73;12.13;;;10.20;99.90;;;;;;4593267;19;20404;-86
2023/12/24 07:38:07;;;;;;;19.67;11.73;;;10.50;99.90;;;;;;4593485;19;20440;-84
2023/12/24 07:39:45;;;;;;;15.93;9.83;;;10.70;99.40;;;;;;4593049;19;20903;-84
2023/12/24 07:41:18;;;;;;;17.27;9.57;;;11.00;99.10;;;;;;4592471;19;20798;-84
2023/12/24 07:42:52;;;;;;;15.33;8.67;;;11.10;98.80;;;;;;4593404;19;20425;-87
2023/12/24 07:44:29;;;;;;;14.57;9.63;;;11.30;98.50;;;;;;4593540;19;20425;-76
2023/12/24 07:46:04;;;;;;;19.13;10.37;;;11.50;98.20;;;;;;4594114;19;20385;-77
2023/12/24 07:47:38;;;;;;;16.80;11.63;;;11.70;98.00;;;;;;4594431;19;20389;-77
2023/12/24 07:49:14;;;;;;;16.10;10.13;;;11.80;97.70;;;;;;4594389;19;20440;-76
2023/12/24 07:50:49;;;;;;;14.03;9.23;;;12.00;97.50;;;;;;4593712;19;20514;-77
2023/12/24 07:52:23;;;;;;;12.73;7.60;;;12.10;97.20;;;;;;4594283;19;20413;-75
2023/12/24 07:53:59;;;;;;;12.53;8.03;;;12.20;97.10;;;;;;4594343;19;20888;-74
2023/12/24 07:55:33;;;;;;;13.67;8.13;;;12.30;96.90;;;;;;4594519;19;20385;-73
2023/12/24 07:57:07;;;;;;;11.27;7.67;;;12.40;96.80;;;;;;4594319;19;20423;-76
2023/12/24 07:58:43;;;;;;;14.97;8.00;;;12.50;96.70;;;;;;4594488;19;19999;-76
2023/12/24 08:00:18;;;;;;;13.80;7.73;;;12.60;96.60;;;;;;4593567;19;19998;-76
2023/12/24 08:01:52;;;;;;;15.33;8.63;;;12.70;96.50;;;;;;4594366;19;20003;-79
2023/12/24 08:03:28;;;;;;;16.63;8.13;;;12.80;96.40;;;;;;4592781;19;20337;-78
2023/12/24 08:05:03;;;;;;;13.50;8.00;;;12.80;96.30;;;;;;4593622;19;20437;-75
2023/12/24 08:06:37;;;;;;;12.17;7.37;;;12.90;96.20;;;;;;4594389;19;20010;-75
2023/12/24 08:08:12;;;;;;;11.13;6.93;;;12.90;96.20;;;;;;4594357;19;20481;-77
2023/12/24 08:09:46;;;;;;;12.47;7.60;;;13.10;96.20;;;;;;4594302;19;20015;-79
2023/12/24 08:11:22;;;;;;;12.67;7.70;;;13.10;96.00;;;;;;4592961;19;20013;-74
2023/12/24 08:12:57;;;;;;;13.17;7.70;;;13.30;95.90;;;;;;4594245;19;20070;-75
2023/12/24 08:14:31;;;;;;;11.33;7.17;;;13.30;95.80;;;;;;4593925;19;20034;-79
2023/12/24 08:16:07;;;;;;;11.67;8.00;;;13.40;95.80;;;;;;4594181;19;20002;-79
2023/12/24 08:17:43;;;;;;;12.40;7.70;;;13.50;95.70;;;;;;4594216;19;20081;-80
2023/12/24 08:19:17;;;;;;;12.90;8.67;;;13.70;95.60;;;;;;4594042;19;19995;-79
2023/12/24 08:20:52;;;;;;;14.20;7.90;;;13.80;95.50;;;;;;4590967;19;20424;-77
2023/12/24 08:22:27;;;;;;;14.60;7.93;;;13.90;95.30;;;;;;4593485;19;20031;-77
2023/12/24 08:24:02;;;;;;;10.57;7.53;;;14.00;95.10;;;;;;4593739;19;19995;-78
2023/12/24 08:25:37;;;;;;;9.40;7.47;;;14.10;95.00;;;;;;4593607;19;20010;-77
2023/12/24 08:27:13;;;;;;;14.53;8.93;;;14.20;94.80;;;;;;4594182;19;20014;-78
2023/12/24 08:28:47;;;;;;;15.53;10.50;;;14.30;94.70;;;;;;4593714;19;20006;-87
2023/12/24 08:30:21;;;;;;;16.50;11.17;;;14.40;94.50;;;;;;4593666;19;20002;-79
2023/12/24 08:31:56;;;;;;;13.53;9.63;;;14.40;94.40;;;;;;4592357;19;20033;-83
2023/12/24 08:33:30;;;;;;;19.27;12.00;;;14.60;94.30;;;;;;4592332;19;20010;-80
2023/12/24 08:35:04;;;;;;;19.17;11.30;;;14.70;94.20;;;;;;4590572;19;20386;-82
2023/12/24 08:36:40;;;;;;;18.93;11.33;;;14.70;94.10;;;;;;4592195;19;20006;-83